createdAt,value
2022-12-07T00:01:12.842Z,16.57
2022-12-07T00:03:41.385Z,16.55
2022-12-07T00:06:09.921Z,16.58
2022-12-07T00:08:37.222Z,16.57
2022-12-07T00:11:05.846Z,16.56
2022-12-07T00:13:33.905Z,16.57
2022-12-07T00:16:09.156Z,16.56
2022-12-07T00:18:36.038Z,16.56
2022-12-07T00:21:06.573Z,16.56
2022-12-07T00:23:34.620Z,16.54
2022-12-07T00:26:16.790Z,16.57
2022-12-07T00:28:47.761Z,16.56
2022-12-07T00:31:14.888Z,16.55
2022-12-07T00:33:41.448Z,16.53
2022-12-07T00:36:14.006Z,16.56
2022-12-07T00:38:41.047Z,16.54
2022-12-07T00:41:12.657Z,16.54
2022-12-07T00:43:39.968Z,16.53
2022-12-07T00:46:06.594Z,16.53
2022-12-07T00:48:33.305Z,16.54
2022-12-07T00:50:59.932Z,16.54
2022-12-07T00:53:28.019Z,16.53
2022-12-07T00:55:56.499Z,16.52
2022-12-07T00:58:24.189Z,16.51
2022-12-07T01:00:51.825Z,16.50
2022-12-07T01:03:18.849Z,16.51
2022-12-07T01:05:56.135Z,16.52
2022-12-07T01:08:24.967Z,16.52
2022-12-07T01:10:59.833Z,16.52
2022-12-07T01:13:26.352Z,16.52
2022-12-07T01:15:52.849Z,16.51
2022-12-07T01:18:19.422Z,16.51
2022-12-07T01:20:45.892Z,16.51
2022-12-07T01:23:12.432Z,16.48
2022-12-07T01:25:38.937Z,16.50
2022-12-07T01:28:05.425Z,16.52
2022-12-07T01:30:31.953Z,16.49
2022-12-07T01:32:58.460Z,16.50
2022-12-07T01:35:24.996Z,16.51
2022-12-07T01:37:51.469Z,16.51
2022-12-07T01:40:18.720Z,16.48
2022-12-07T01:42:45.232Z,16.49
2022-12-07T01:45:40.489Z,16.49
2022-12-07T01:48:10.071Z,16.49
2022-12-07T01:50:37.306Z,16.50
2022-12-07T01:53:07.258Z,16.50
2022-12-07T01:55:36.855Z,16.51
2022-12-07T01:58:03.309Z,16.50
2022-12-07T02:00:29.830Z,16.51
2022-12-07T02:03:25.066Z,16.49
2022-12-07T02:05:53.865Z,16.51
2022-12-07T02:08:21.250Z,16.49
2022-12-07T02:10:47.845Z,16.50
2022-12-07T02:13:19.078Z,16.49
2022-12-07T02:16:07.934Z,16.50
2022-12-07T02:19:15.757Z,16.49
2022-12-07T02:22:12.478Z,16.50
2022-12-07T02:24:53.685Z,16.49
2022-12-07T02:27:44.136Z,16.49
2022-12-07T02:30:13.698Z,16.49
2022-12-07T02:32:56.761Z,16.47
2022-12-07T02:35:31.497Z,16.47
2022-12-07T02:38:26.829Z,16.46
2022-12-07T02:40:59.010Z,16.45
2022-12-07T02:43:29.619Z,16.47
2022-12-07T02:46:05.597Z,16.46
2022-12-07T02:48:34.269Z,16.47
2022-12-07T02:51:00.826Z,16.48
2022-12-07T02:53:31.404Z,16.47
2022-12-07T02:55:58.358Z,16.48
2022-12-07T02:58:39.791Z,16.47
2022-12-07T03:01:25.581Z,16.48
2022-12-07T03:04:10.938Z,16.48
2022-12-07T03:06:49.429Z,16.47
2022-12-07T03:09:35.030Z,16.46
2022-12-07T03:12:17.789Z,16.47
2022-12-07T03:14:56.634Z,16.48
2022-12-07T03:17:31.132Z,16.45
2022-12-07T03:20:01.223Z,16.45
2022-12-07T03:22:31.848Z,16.47
2022-12-07T03:25:01.983Z,16.46
2022-12-07T03:27:35.073Z,16.47
2022-12-07T03:30:13.856Z,16.45
2022-12-07T03:32:43.479Z,16.45
2022-12-07T03:35:26.247Z,16.45
2022-12-07T03:37:58.229Z,16.46
2022-12-07T03:40:34.555Z,16.45
2022-12-07T03:43:02.679Z,16.45
2022-12-07T03:46:07.459Z,16.45
2022-12-07T03:48:47.127Z,16.46
2022-12-07T03:51:25.325Z,16.44
2022-12-07T03:54:18.251Z,16.44
2022-12-07T03:56:46.390Z,16.44
2022-12-07T03:59:15.312Z,16.44
2022-12-07T04:01:46.577Z,16.44
2022-12-07T04:04:13.155Z,16.44
2022-12-07T04:06:39.662Z,16.44
2022-12-07T04:09:06.317Z,16.43
2022-12-07T04:11:32.814Z,16.43
2022-12-07T04:14:17.886Z,16.43
2022-12-07T04:16:44.963Z,16.43
2022-12-07T04:19:11.927Z,16.43
2022-12-07T04:21:38.432Z,16.42
2022-12-07T04:24:05.303Z,16.42
2022-12-07T04:26:32.301Z,16.42
2022-12-07T04:29:02.345Z,16.43
2022-12-07T04:31:31.515Z,16.43
2022-12-07T04:33:58.089Z,16.42
2022-12-07T04:36:24.660Z,16.42
2022-12-07T04:38:51.205Z,16.40
2022-12-07T04:41:17.671Z,16.42
2022-12-07T04:43:44.192Z,16.39
2022-12-07T04:46:10.769Z,16.40
2022-12-07T04:48:37.302Z,16.41
2022-12-07T04:51:04.855Z,16.40
2022-12-07T04:53:31.395Z,16.41
2022-12-07T04:55:57.898Z,16.39
2022-12-07T04:58:24.363Z,16.40
2022-12-07T05:00:51.042Z,16.38
2022-12-07T05:03:17.623Z,16.39
2022-12-07T05:05:44.167Z,16.38
2022-12-07T05:08:10.862Z,16.40
2022-12-07T05:10:37.460Z,16.39
2022-12-07T05:13:03.979Z,16.39
2022-12-07T05:15:30.459Z,16.39
2022-12-07T05:17:57.000Z,16.38
2022-12-07T05:20:23.586Z,16.40
2022-12-07T05:22:50.129Z,16.39
2022-12-07T05:25:16.666Z,16.37
2022-12-07T05:27:43.160Z,16.38
2022-12-07T05:30:10.032Z,16.37
2022-12-07T05:32:36.594Z,16.37
2022-12-07T05:35:03.121Z,16.36
2022-12-07T05:37:29.589Z,16.37
2022-12-07T05:39:56.119Z,16.37
2022-12-07T05:42:22.611Z,16.36
2022-12-07T05:44:49.330Z,16.36
2022-12-07T05:47:16.397Z,16.38
2022-12-07T05:49:42.933Z,16.38
2022-12-07T05:52:09.469Z,16.37
2022-12-07T05:54:35.973Z,16.36
2022-12-07T05:57:02.532Z,16.35
2022-12-07T05:59:30.075Z,16.36
2022-12-07T06:01:58.156Z,16.35
2022-12-07T06:04:26.536Z,16.35
2022-12-07T06:06:53.572Z,16.35
2022-12-07T06:09:21.799Z,16.34
2022-12-07T06:12:07.081Z,16.34
2022-12-07T06:14:33.708Z,16.35
2022-12-07T06:17:00.841Z,16.34
2022-12-07T06:19:27.890Z,16.33
2022-12-07T06:21:54.936Z,16.35
2022-12-07T06:24:22.168Z,16.35
2022-12-07T06:26:49.120Z,16.32
2022-12-07T06:29:16.209Z,16.32
2022-12-07T06:31:42.812Z,16.32
2022-12-07T06:34:18.143Z,16.32
2022-12-07T06:36:45.085Z,16.32
2022-12-07T06:39:12.470Z,16.31
2022-12-07T06:41:39.984Z,16.32
2022-12-07T06:44:07.641Z,16.32
2022-12-07T06:46:36.307Z,16.31
2022-12-07T06:49:04.042Z,16.31
2022-12-07T06:51:30.889Z,16.31
2022-12-07T06:53:57.466Z,16.31
2022-12-07T06:56:24.047Z,16.31
2022-12-07T06:58:50.908Z,16.31
2022-12-07T07:01:19.452Z,16.31
2022-12-07T07:03:46.790Z,16.30
2022-12-07T07:06:15.013Z,16.31
2022-12-07T07:08:42.125Z,16.30
2022-12-07T07:11:09.719Z,16.31
2022-12-07T07:13:36.652Z,16.30
2022-12-07T07:16:03.484Z,16.30
2022-12-07T07:18:30.258Z,16.30
2022-12-07T07:20:57.129Z,16.32
2022-12-07T07:23:24.159Z,16.30
2022-12-07T07:25:51.058Z,16.30
2022-12-07T07:28:17.819Z,16.30
2022-12-07T07:30:44.387Z,16.27
2022-12-07T07:33:11.875Z,16.29
2022-12-07T07:35:39.926Z,16.28
2022-12-07T07:38:06.897Z,16.30
2022-12-07T07:40:33.390Z,16.30
2022-12-07T07:42:59.924Z,16.30
2022-12-07T07:45:27.869Z,16.30
2022-12-07T07:47:54.596Z,16.30
2022-12-07T07:50:23.199Z,16.32
2022-12-07T07:52:49.851Z,16.32
2022-12-07T07:55:17.289Z,16.29
2022-12-07T07:57:44.699Z,16.29
2022-12-07T08:00:15.203Z,16.29
2022-12-07T08:02:43.908Z,16.29
2022-12-07T08:05:12.865Z,16.29
2022-12-07T08:07:39.703Z,16.30
2022-12-07T08:10:07.213Z,16.30
2022-12-07T08:12:37.457Z,16.28
2022-12-07T08:15:04.452Z,16.29
2022-12-07T08:17:30.932Z,16.27
2022-12-07T08:19:57.667Z,16.27
2022-12-07T08:22:24.226Z,16.27
2022-12-07T08:24:50.866Z,16.26
2022-12-07T08:27:17.374Z,16.27
2022-12-07T08:29:43.928Z,16.28
2022-12-07T08:32:10.453Z,16.26
2022-12-07T08:34:37.880Z,16.27
2022-12-07T08:37:04.389Z,16.27
2022-12-07T08:39:32.313Z,16.27
2022-12-07T08:41:59.367Z,16.27
2022-12-07T08:44:25.954Z,16.27
2022-12-07T08:47:00.193Z,16.26
2022-12-07T08:49:41.113Z,16.25
2022-12-07T08:52:07.682Z,16.27
2022-12-07T08:54:36.486Z,16.26
2022-12-07T08:57:03.754Z,16.24
2022-12-07T08:59:30.658Z,16.27
2022-12-07T09:01:57.210Z,16.26
2022-12-07T09:04:23.771Z,16.26
2022-12-07T09:06:50.475Z,16.25
2022-12-07T09:09:17.011Z,16.25
2022-12-07T09:11:46.231Z,16.26
2022-12-07T09:14:13.699Z,16.26
2022-12-07T09:16:40.763Z,16.24
2022-12-07T09:19:08.648Z,16.25
2022-12-07T09:21:35.128Z,16.24
2022-12-07T09:24:01.615Z,16.25
2022-12-07T09:26:28.070Z,16.23
2022-12-07T09:28:54.547Z,16.25
2022-12-07T09:31:24.463Z,16.24
2022-12-07T09:34:00.436Z,16.24
2022-12-07T09:36:28.388Z,16.23
2022-12-07T09:38:54.992Z,16.22
2022-12-07T09:41:24.033Z,16.23
2022-12-07T09:43:51.033Z,16.24
2022-12-07T09:46:20.336Z,16.25
2022-12-07T09:48:48.465Z,16.24
2022-12-07T09:51:23.796Z,16.25
2022-12-07T09:53:54.107Z,16.24
2022-12-07T09:56:21.738Z,16.25
2022-12-07T09:58:49.291Z,16.25
2022-12-07T10:01:19.675Z,16.28
2022-12-07T10:03:54.132Z,16.30
2022-12-07T10:06:21.456Z,16.28
2022-12-07T10:08:48.419Z,16.29
2022-12-07T10:11:17.021Z,16.28
2022-12-07T10:13:47.860Z,16.30
2022-12-07T10:16:29.565Z,16.31
2022-12-07T10:18:56.416Z,16.32
2022-12-07T10:21:25.423Z,16.32
2022-12-07T10:24:19.061Z,16.36
2022-12-07T10:26:48.593Z,16.39
2022-12-07T10:29:19.177Z,16.40
2022-12-07T10:31:50.581Z,16.39
2022-12-07T10:34:26.696Z,16.39
2022-12-07T10:36:54.804Z,16.39
2022-12-07T10:39:23.562Z,16.38
2022-12-07T10:42:00.393Z,16.38
2022-12-07T10:44:32.572Z,16.38
2022-12-07T10:47:14.944Z,16.39
2022-12-07T10:49:50.374Z,16.39
2022-12-07T10:52:32.197Z,16.38
2022-12-07T10:55:40.855Z,16.38
2022-12-07T10:58:26.130Z,16.39
2022-12-07T11:01:00.121Z,16.39
2022-12-07T11:04:02.092Z,16.38
2022-12-07T11:06:40.853Z,16.38
2022-12-07T11:10:06.596Z,16.40
2022-12-07T11:12:30.473Z,16.42
2022-12-07T11:15:05.126Z,16.41
2022-12-07T11:18:01.734Z,16.44
2022-12-07T11:20:31.592Z,16.46
2022-12-07T11:23:14.590Z,16.50
2022-12-07T11:25:56.455Z,16.53
2022-12-07T11:28:41.398Z,16.55
2022-12-07T11:31:29.017Z,16.54
2022-12-07T11:34:14.830Z,16.56
2022-12-07T11:36:46.766Z,16.58
2022-12-07T11:39:33.966Z,16.60
2022-12-07T11:42:15.306Z,16.61
2022-12-07T11:44:52.916Z,16.62
2022-12-07T11:47:44.970Z,16.61
2022-12-07T11:50:35.318Z,16.61
2022-12-07T11:53:04.068Z,16.60
2022-12-07T11:55:38.029Z,16.57
2022-12-07T11:58:18.763Z,16.57
2022-12-07T12:00:45.471Z,16.55
2022-12-07T12:03:24.818Z,16.57
2022-12-07T12:05:51.418Z,16.56
2022-12-07T12:11:50.195Z,16.57
2022-12-07T12:14:35.299Z,16.57
2022-12-07T12:17:06.086Z,16.57
2022-12-07T12:19:38.866Z,16.58
2022-12-07T12:22:21.015Z,16.63
2022-12-07T12:24:54.338Z,16.65
2022-12-07T12:27:38.054Z,16.66
2022-12-07T12:30:26.533Z,16.67
2022-12-07T12:32:53.374Z,16.66
2022-12-07T12:35:31.560Z,16.64
2022-12-07T12:38:31.059Z,16.63
2022-12-07T12:40:58.633Z,16.64
2022-12-07T12:44:00.429Z,16.64
2022-12-07T12:46:29.810Z,16.63
2022-12-07T12:49:17.940Z,16.68
2022-12-07T12:51:48.066Z,16.71
2022-12-07T12:54:24.654Z,16.74
2022-12-07T12:57:25.527Z,16.75
2022-12-07T12:59:51.859Z,16.75
2022-12-07T13:02:33.113Z,16.73
2022-12-07T13:05:11.075Z,16.71
2022-12-07T13:07:47.129Z,16.71
2022-12-07T13:10:37.564Z,16.71
2022-12-07T13:13:14.864Z,16.71
2022-12-07T13:15:51.866Z,16.71
2022-12-07T13:18:33.470Z,16.72
2022-12-07T13:21:08.992Z,16.71
2022-12-07T13:23:38.490Z,16.71
2022-12-07T13:26:18.192Z,16.71
2022-12-07T13:28:50.688Z,16.71
2022-12-07T13:31:29.541Z,16.72
2022-12-07T13:33:56.052Z,16.72
2022-12-07T13:36:29.542Z,16.72
2022-12-07T13:38:59.125Z,16.72
2022-12-07T13:41:30.934Z,16.71
2022-12-07T13:44:02.520Z,16.70
2022-12-07T13:46:43.206Z,16.72
2022-12-07T13:49:23.794Z,16.73
2022-12-07T13:51:51.171Z,16.76
2022-12-07T13:54:18.482Z,16.79
2022-12-07T13:56:48.207Z,16.83
2022-12-07T13:59:25.911Z,16.82
2022-12-07T14:01:54.150Z,16.83
2022-12-07T14:04:39.247Z,16.82
2022-12-07T14:07:24.356Z,16.82
2022-12-07T14:10:08.325Z,16.81
2022-12-07T14:12:37.761Z,16.80
2022-12-07T14:15:05.268Z,16.80
2022-12-07T14:17:32.163Z,16.80
2022-12-07T14:20:01.089Z,16.81
2022-12-07T14:22:38.587Z,16.80
2022-12-07T14:25:05.218Z,16.81
2022-12-07T14:27:37.307Z,16.81
2022-12-07T14:30:07.200Z,16.81
2022-12-07T14:32:36.780Z,16.82
2022-12-07T14:35:13.963Z,16.80
2022-12-07T14:37:42.307Z,16.82
2022-12-07T14:40:13.791Z,16.81
2022-12-07T14:42:40.603Z,16.82
2022-12-07T14:45:16.319Z,16.82
2022-12-07T14:50:30.335Z,16.81
2022-12-07T14:55:47.991Z,16.83
2022-12-07T14:58:18.707Z,16.81
2022-12-07T15:00:45.116Z,16.82
2022-12-07T15:03:12.065Z,16.83
2022-12-07T15:05:38.716Z,16.83
2022-12-07T15:08:05.735Z,16.83
2022-12-07T15:10:34.716Z,16.82
2022-12-07T15:13:22.082Z,16.81
2022-12-07T15:15:50.620Z,16.82
2022-12-07T15:18:17.397Z,16.83
2022-12-07T15:20:43.896Z,16.82
2022-12-07T15:23:11.662Z,16.79
2022-12-07T15:25:42.131Z,16.81
2022-12-07T15:28:08.671Z,16.80
2022-12-07T15:30:35.253Z,16.78
2022-12-07T15:33:02.097Z,16.78
2022-12-07T15:35:28.661Z,16.78
2022-12-07T15:37:55.187Z,16.78
2022-12-07T15:40:21.760Z,16.79
2022-12-07T15:42:48.328Z,16.78
2022-12-07T15:45:14.801Z,16.77
2022-12-07T15:48:19.864Z,16.75
2022-12-07T15:50:30.595Z,16.78
2022-12-07T15:52:57.090Z,16.77
2022-12-07T15:55:23.652Z,16.75
2022-12-07T15:57:50.507Z,16.72
2022-12-07T16:00:17.563Z,16.75
2022-12-07T16:02:44.164Z,16.73
2022-12-07T16:05:10.734Z,16.74
2022-12-07T16:07:37.285Z,16.72
2022-12-07T16:10:04.364Z,16.72
2022-12-07T16:12:30.901Z,16.73
2022-12-07T16:14:57.423Z,16.75
2022-12-07T16:17:23.898Z,16.72
2022-12-07T16:19:50.443Z,16.71
2022-12-07T16:22:17.012Z,16.71
2022-12-07T16:24:43.453Z,16.73
2022-12-07T16:27:09.923Z,16.73
2022-12-07T16:29:36.494Z,16.71
2022-12-07T16:32:03.114Z,16.71
2022-12-07T16:34:29.650Z,16.71
2022-12-07T16:37:05.070Z,16.71
2022-12-07T16:39:33.239Z,16.72
2022-12-07T16:41:59.816Z,16.71
2022-12-07T16:44:26.399Z,16.70
2022-12-07T16:46:53.041Z,16.70
2022-12-07T16:49:20.105Z,16.69
2022-12-07T16:51:48.222Z,16.67
2022-12-07T16:54:14.895Z,16.68
2022-12-07T16:56:42.335Z,16.69
2022-12-07T16:59:09.010Z,16.68
2022-12-07T17:01:36.889Z,16.69
2022-12-07T17:04:05.342Z,16.66
2022-12-07T17:06:32.151Z,16.67
2022-12-07T17:08:59.164Z,16.66
2022-12-07T17:11:29.635Z,16.65
2022-12-07T17:14:14.713Z,16.65
2022-12-07T17:16:41.325Z,16.67
2022-12-07T17:19:09.637Z,16.63
2022-12-07T17:21:36.875Z,16.64
2022-12-07T17:24:06.020Z,16.67
2022-12-07T17:26:35.744Z,16.66
2022-12-07T17:29:05.555Z,16.65
2022-12-07T17:31:33.521Z,16.67
2022-12-07T17:34:00.313Z,16.65
2022-12-07T17:36:30.789Z,16.64
2022-12-07T17:38:58.334Z,16.64
2022-12-07T17:41:45.837Z,16.64
2022-12-07T17:44:14.521Z,16.65
2022-12-07T17:46:41.115Z,16.65
2022-12-07T17:49:07.877Z,16.64
2022-12-07T17:51:53.284Z,16.62
2022-12-07T17:54:20.028Z,16.61
2022-12-07T17:56:47.120Z,16.61
2022-12-07T17:59:13.961Z,16.60
2022-12-07T18:01:41.081Z,16.63
2022-12-07T18:04:08.120Z,16.63
2022-12-07T18:06:34.848Z,16.62
2022-12-07T18:09:02.448Z,16.64
2022-12-07T18:11:29.054Z,16.61
2022-12-07T18:13:55.525Z,16.64
2022-12-07T18:16:24.435Z,16.61
2022-12-07T18:18:54.000Z,16.59
2022-12-07T18:21:24.867Z,16.59
2022-12-07T18:23:54.160Z,16.60
2022-12-07T18:26:22.301Z,16.59
2022-12-07T18:28:48.970Z,16.60
2022-12-07T18:31:16.280Z,16.61
2022-12-07T18:33:44.256Z,16.59
2022-12-07T18:36:11.277Z,16.60
2022-12-07T18:38:37.921Z,16.58
2022-12-07T18:41:08.270Z,16.58
2022-12-07T18:43:34.817Z,16.58
2022-12-07T18:46:01.680Z,16.57
2022-12-07T18:48:28.179Z,16.58
2022-12-07T18:51:03.248Z,16.59
2022-12-07T18:53:30.213Z,16.60
2022-12-07T18:56:07.257Z,16.60
2022-12-07T18:58:34.612Z,16.59
2022-12-07T19:01:01.234Z,16.59
2022-12-07T19:03:33.032Z,16.57
2022-12-07T19:06:06.262Z,16.60
2022-12-07T19:08:34.255Z,16.59
2022-12-07T19:11:23.708Z,16.58
2022-12-07T19:13:51.087Z,16.56
2022-12-07T19:16:17.687Z,16.58
2022-12-07T19:18:49.320Z,16.56
2022-12-07T19:21:17.948Z,16.57
2022-12-07T19:23:44.473Z,16.57
2022-12-07T19:26:11.047Z,16.55
2022-12-07T19:28:37.564Z,16.54
2022-12-07T19:31:12.867Z,16.54
2022-12-07T19:33:39.691Z,16.56
2022-12-07T19:36:06.818Z,16.57
2022-12-07T19:38:33.785Z,16.54
2022-12-07T19:41:32.446Z,16.54
2022-12-07T19:44:00.463Z,16.53
2022-12-07T19:46:30.314Z,16.55
2022-12-07T19:48:57.868Z,16.53
2022-12-07T19:51:24.885Z,16.54
2022-12-07T19:53:51.654Z,16.54
2022-12-07T19:56:21.021Z,16.56
2022-12-07T19:58:50.292Z,16.54
2022-12-07T20:01:17.293Z,16.53
2022-12-07T20:03:44.055Z,16.54
2022-12-07T20:06:13.908Z,16.55
2022-12-07T20:08:41.016Z,16.55
2022-12-07T20:11:26.599Z,16.55
2022-12-07T20:13:53.715Z,16.56
2022-12-07T20:16:20.759Z,16.54
2022-12-07T20:18:51.549Z,16.54
2022-12-07T20:21:22.807Z,16.53
2022-12-07T20:23:49.300Z,16.54
2022-12-07T20:26:15.876Z,16.54
2022-12-07T20:28:46.291Z,16.53
2022-12-07T20:31:14.935Z,16.52
2022-12-07T20:33:42.768Z,16.52
2022-12-07T20:36:10.269Z,16.54
2022-12-07T20:38:37.432Z,16.53
2022-12-07T20:41:28.696Z,16.53
2022-12-07T20:43:56.120Z,16.52
2022-12-07T20:46:23.093Z,16.51
2022-12-07T20:48:49.716Z,16.52
2022-12-07T20:51:16.255Z,16.52
2022-12-07T20:53:42.833Z,16.52
2022-12-07T20:56:21.481Z,16.52
2022-12-07T20:58:48.374Z,16.52
2022-12-07T21:01:15.510Z,16.53
2022-12-07T21:03:43.497Z,16.53
2022-12-07T21:06:14.888Z,16.51
2022-12-07T21:08:45.997Z,16.52
2022-12-07T21:11:13.381Z,16.53
2022-12-07T21:13:40.487Z,16.52
2022-12-07T21:16:09.192Z,16.52
2022-12-07T21:18:35.710Z,16.52
2022-12-07T21:21:02.960Z,16.50
2022-12-07T21:23:29.479Z,16.52
2022-12-07T21:25:55.968Z,16.52
2022-12-07T21:28:22.531Z,16.52
2022-12-07T21:31:12.154Z,16.52
2022-12-07T21:33:39.417Z,16.51
2022-12-07T21:36:10.332Z,16.51
2022-12-07T21:38:36.938Z,16.52
2022-12-07T21:41:13.419Z,16.51
2022-12-07T21:43:40.135Z,16.52
2022-12-07T21:46:06.975Z,16.51
2022-12-07T21:48:33.520Z,16.50
2022-12-07T21:51:12.189Z,16.51
2022-12-07T21:53:40.435Z,16.51
2022-12-07T21:56:19.042Z,16.50
2022-12-07T21:58:45.625Z,16.51
2022-12-07T22:01:26.287Z,16.51
2022-12-07T22:03:53.661Z,16.52
2022-12-07T22:06:25.624Z,16.51
2022-12-07T22:08:53.471Z,16.51
2022-12-07T22:11:20.248Z,16.51
2022-12-07T22:14:11.021Z,16.51
2022-12-07T22:16:38.542Z,16.51
2022-12-07T22:19:05.893Z,16.51
2022-12-07T22:21:33.284Z,16.52
2022-12-07T22:23:59.887Z,16.52
2022-12-07T22:26:27.348Z,16.51
2022-12-07T22:28:54.595Z,16.51
2022-12-07T22:31:21.865Z,16.50
2022-12-07T22:33:48.626Z,16.51
2022-12-07T22:36:15.853Z,16.49
2022-12-07T22:38:43.006Z,16.49
2022-12-07T22:41:16.821Z,16.50
2022-12-07T22:43:43.274Z,16.49
2022-12-07T22:46:10.443Z,16.49
2022-12-07T22:48:37.327Z,16.49
2022-12-07T22:51:03.938Z,16.51
2022-12-07T22:53:30.520Z,16.50
2022-12-07T22:55:57.102Z,16.49
2022-12-07T22:58:23.624Z,16.50
2022-12-07T23:00:50.164Z,16.50
2022-12-07T23:03:16.718Z,16.50
2022-12-07T23:05:48.449Z,16.50
2022-12-07T23:08:15.563Z,16.50
2022-12-07T23:10:44.613Z,16.51
2022-12-07T23:13:31.931Z,16.49
2022-12-07T23:16:17.215Z,16.49
2022-12-07T23:18:44.508Z,16.51
2022-12-07T23:21:11.098Z,16.49
2022-12-07T23:23:37.581Z,16.49
2022-12-07T23:26:06.945Z,16.48
2022-12-07T23:28:34.715Z,16.50
2022-12-07T23:31:06.331Z,16.49
2022-12-07T23:33:33.220Z,16.50
2022-12-07T23:36:11.145Z,16.49
2022-12-07T23:38:39.141Z,16.48
2022-12-07T23:41:10.903Z,16.48
2022-12-07T23:43:39.182Z,16.48
2022-12-07T23:46:10.986Z,16.49
2022-12-07T23:48:38.530Z,16.48
2022-12-07T23:51:05.680Z,16.49
2022-12-07T23:53:36.889Z,16.48
2022-12-07T23:56:04.034Z,16.48
2022-12-07T23:58:31.443Z,16.48
